»·PEaware :: N470MA KSBA-KBUR

N470MA :: KSBA-KBUR

FLIGHT INFORMATION

Flight Status: Arrived
Operator: Privately registered:
United States
More flights under this callsign
Pilot: Victor C. (32144)
Aircraft: MOONEY M-20 201 202 205 220 ATS MSE
(M20P)
More flights by this aircraft type
Origin: KSBA Santa Barbara Mun
United States
Destination: KBUR Bob Hope-Burbank
United States
More flights between these airports :: More routes between these airports
Route:
File this flight plan on PilotEdge
Remarks:
Altitude:
(Current/Filed)
7,500ft
Speed:
(Current/Filed)
120kts
Departed: 12-Jan-21 09:29 AM
Arrived: 12-Jan-21 10:14 AM
Distance/Time
Traveled:
75nm/0:45
Distance/Time
To Go:
Arrived

Flight Plot

Page will automatically refresh every two minutes.


Map Options




Map Legend


Flown Route
Filed Route
Departure Airport
Arrival Airport
Navaid (VOR, NDB)
Fix

Horizontal Profiles

Position Reports

Time Latitude Longitude Heading Altitude Ground
Speed
12-Jan-21 08:58 34.432367 -119.836193 248 12ft 0kts
12-Jan-21 08:59 34.432367 -119.836193 248 12ft 0kts
12-Jan-21 09:00 34.432367 -119.836193 248 12ft 0kts
12-Jan-21 09:01 34.432367 -119.836193 248 12ft 0kts
12-Jan-21 09:02 34.432367 -119.836193 248 12ft 0kts
12-Jan-21 09:03 34.432367 -119.836193 248 12ft 0kts
12-Jan-21 09:04 34.432367 -119.836193 248 12ft 0kts
12-Jan-21 09:05 34.432367 -119.836193 248 12ft 0kts
12-Jan-21 09:06 34.432367 -119.836193 248 12ft 0kts
12-Jan-21 09:07 34.432367 -119.836193 248 12ft 0kts
12-Jan-21 09:08 34.432367 -119.836193 248 12ft 0kts
12-Jan-21 09:09 34.432367 -119.836193 248 12ft 0kts
12-Jan-21 09:10 34.432367 -119.836193 248 12ft 0kts
12-Jan-21 09:11 34.432367 -119.836193 248 12ft 0kts
12-Jan-21 09:12 34.432367 -119.836193 248 12ft 0kts
12-Jan-21 09:13 34.432367 -119.836193 248 12ft 0kts
12-Jan-21 09:14 34.432367 -119.836193 248 12ft 0kts
12-Jan-21 09:15 34.432367 -119.836193 248 12ft 0kts
12-Jan-21 09:16 34.432367 -119.836193 248 12ft 0kts
12-Jan-21 09:17 34.432367 -119.836193 248 12ft 0kts
12-Jan-21 09:18 34.432367 -119.836193 248 12ft 0kts
12-Jan-21 09:19 34.432367 -119.836193 248 12ft 0kts
12-Jan-21 09:20 34.432367 -119.836193 248 12ft 0kts
12-Jan-21 09:21 34.432367 -119.836193 248 12ft 0kts
12-Jan-21 09:22 34.432075 -119.836066 142 12ft 0kts
12-Jan-21 09:23 34.430704 -119.835342 181 12ft 17kts
12-Jan-21 09:24 34.428728 -119.834825 90 12ft 2kts
12-Jan-21 09:25 34.428679 -119.834674 197 12ft 0kts
12-Jan-21 09:26 34.428679 -119.834674 197 12ft 0kts
12-Jan-21 09:27 34.428679 -119.834674 197 12ft 0kts
12-Jan-21 09:28 34.427672 -119.847047 267 142ft 100kts
12-Jan-21 09:29 34.423702 -119.879545 267 1629ft 92kts
12-Jan-21 09:30 34.423922 -119.918381 271 2065ft 125kts
12-Jan-21 09:31 34.402910 -119.941503 135 1960ft 128kts
12-Jan-21 09:32 34.382093 -119.910197 132 2163ft 125kts
12-Jan-21 09:33 34.362493 -119.873784 132 1928ft 140kts
12-Jan-21 09:34 34.336038 -119.838672 133 1945ft 117kts
12-Jan-21 09:35 34.324163 -119.810396 96 2673ft 90kts
12-Jan-21 09:36 34.323680 -119.780697 77 3274ft 87kts
12-Jan-21 09:37 34.330460 -119.752516 73 3813ft 87kts
12-Jan-21 09:38 34.337924 -119.724473 73 4326ft 88kts
12-Jan-21 09:39 34.347166 -119.691089 73 5421ft 116kts
12-Jan-21 09:40 34.358505 -119.651586 73 6543ft 129kts
12-Jan-21 09:41 34.366891 -119.608060 82 7442ft 146kts
12-Jan-21 09:42 34.370707 -119.562121 83 7775ft 125kts
12-Jan-21 09:43 34.366571 -119.519841 93 7846ft 129kts
12-Jan-21 09:44 34.363299 -119.474462 93 7590ft 147kts
12-Jan-21 09:45 34.359912 -119.426337 93 7494ft 137kts
12-Jan-21 09:46 34.356659 -119.381287 93 7583ft 124kts
12-Jan-21 09:47 34.352667 -119.337600 100 7423ft 139kts
12-Jan-21 09:48 34.342761 -119.290841 103 7266ft 145kts
12-Jan-21 09:49 34.332660 -119.246566 103 7598ft 119kts
12-Jan-21 09:50 34.323006 -119.204302 103 7514ft 133kts
12-Jan-21 09:51 34.317193 -119.160282 95 7522ft 133kts
12-Jan-21 09:52 34.308502 -119.116928 102 7528ft 134kts
12-Jan-21 09:53 34.301107 -119.073232 94 7514ft 133kts
12-Jan-21 09:54 34.297656 -119.028871 92 7521ft 133kts
12-Jan-21 09:55 34.294432 -118.984669 93 7530ft 134kts
12-Jan-21 09:56 34.289651 -118.940381 101 7527ft 134kts
12-Jan-21 09:57 34.280002 -118.896493 103 7523ft 134kts
12-Jan-21 09:58 34.270844 -118.856071 103 7529ft 132kts
12-Jan-21 09:59 34.261244 -118.814012 103 7520ft 128kts
12-Jan-21 10:00 34.260832 -118.771958 73 7287ft 137kts
12-Jan-21 10:01 34.270040 -118.724816 81 6593ft 148kts
12-Jan-21 10:02 34.273772 -118.680816 82 5775ft 108kts
12-Jan-21 10:03 34.272865 -118.645005 93 4612ft 108kts
12-Jan-21 10:04 34.273670 -118.607817 83 3424ft 111kts
12-Jan-21 10:05 34.275247 -118.569845 92 2411ft 129kts
12-Jan-21 10:06 34.278639 -118.530869 72 2269ft 111kts
12-Jan-21 10:07 34.284761 -118.496422 74 2144ft 105kts
12-Jan-21 10:08 34.281408 -118.461492 113 2026ft 106kts
12-Jan-21 10:09 34.264135 -118.433687 125 2026ft 99kts
12-Jan-21 10:10 34.244235 -118.410174 140 2070ft 97kts
12-Jan-21 10:11 34.228497 -118.382999 114 1980ft 109kts
12-Jan-21 10:12 34.210664 -118.360047 166 809ft 99kts
12-Jan-21 10:13 34.199327 -118.356927 192 738ft 10kts
12-Jan-21 10:15 34.198878 -118.357703 291 737ft 1kts
12-Jan-21 10:16 34.199425 -118.358947 340 736ft 0kts

Navigation Log

Ident Type
Flight plan parsing failed, navigation log unavailable